Estación Meteorológica Peña el Pijo (Robertgarden) [ 02/03/23 04:01:39 CET ]

Fecha Hora Presion(HPa) Temp (°C) Humedad % Rocio (°C) Viento ( m/s) Direccion Lluvia 1Hora(mm) Lluvia 24H(mm) LLuvia Total(mm)
2010-Jun-05 01:01:15 1015.500 15.8 82 12.8         120.17
2010-Jun-05 02:01:16 1015.300 15.3 84 12.6         120.17
2010-Jun-05 03:06:13 1015.100 15.3 83 12.4         120.17
2010-Jun-05 04:01:12 1015.000 14.6 83 11.7         120.17
2010-Jun-05 05:01:17 1014.700 13.6 87 11.5         120.17
2010-Jun-05 06:01:15 1014.500 13.0 88 11.0         120.17
2010-Jun-05 07:01:21 1014.800 12.5 88 10.6         120.17
2010-Jun-05 08:01:16 1015.000 14.9 85 12.4         120.17
2010-Jun-05 09:01:14 1015.100 20.2 68 14.1         120.17
2010-Jun-05 10:01:14 1015.100 24.9 51 14.1         120.17
2010-Jun-05 11:01:14 1014.800 28.9 43 15.1 1.6 NNE     120.17
2010-Jun-05 12:01:13 1014.600 30.2 38 14.3         120.17
2010-Jun-05 13:01:13 1014.600 31.3 39 15.7         120.17
2010-Jun-05 14:01:14 1014.100 31.4 33 13.1         120.17
2010-Jun-05 15:01:16 1013.700 30.6 40 15.5         120.17
2010-Jun-05 16:01:16 1013.200 29.3 38 13.5         120.17
2010-Jun-05 17:01:12 1012.900 30.6 32 12.0         120.17
2010-Jun-05 18:01:13 1012.800 28.1 34 10.7         120.17
2010-Jun-05 19:01:14 1012.800 27.3 34 10.0 1.4 N     120.17
2010-Jun-05 20:01:16 1013.000 25.1 40 10.6         120.17
2010-Jun-05 21:01:17 1013.300 24.1 42 10.4         120.17
2010-Jun-05 22:01:14 1013.600 21.2 51 10.7         120.17
2010-Jun-05 23:01:16 1013.900 17.9 64 11.0         120.17

Temperatura Máxima:31°    Temperatura Mínima:12°
Presión Máxima:1015.500 Hpa    Presión Mínima:1012.800 Hpa


Volver